WetterOnline ( https://www.wetteronline.de )

Wetter aktuell Bellevue

Aktuelles Wetter: Mühlacker (245m)

6-stündlich | Neueste Meldungen
Ortszeit Temperatur Wetter
Do, 29.10. 13:00 11.2° C Sprühregen
Do, 29.10. 7:00 8.5° C leichter Regen
Do, 29.10. 1:00 11.8° C bedeckt
Mi, 28.10. 19:00 8.1° C wolkig
Mi, 28.10. 13:00 13.8° C bewölkt
Mi, 28.10. 7:00 8.5° C leichter Regen
Mi, 28.10. 1:00 9.2° C bedeckt
Di, 27.10. 19:00 7.0° C leicht bewölkt
Ortszeit Temperatur Wetter
Do, 29.10. 18:00 11.2° C leichter Regen
Do, 29.10. 17:50 11.2° C leichter Regen
Do, 29.10. 17:40 11.3° C Sprühregen
Do, 29.10. 17:30 11.4° C leichter Regen
Do, 29.10. 17:20 11.4° C leichter Regen
Do, 29.10. 17:10 11.4° C leichter Regen
Do, 29.10. 17:00 11.5° C leichter Regen
Do, 29.10. 16:30 11.7° C leichter Regen
Do, 29.10. 16:00 12.1° C leichter Regen
Do, 29.10. 15:30 12.2° C leichter Regen
Do, 29.10. 15:00 12.3° C bewölkt
Ortszeit Relative Feuchte Sichtweite
Do, 29.10. 13:00 82% 22 km
Do, 29.10. 7:00 91% 6 km
Do, 29.10. 1:00 76% 70 km
Mi, 28.10. 19:00 96% 50 km
Mi, 28.10. 13:00 70% 70 km
Mi, 28.10. 7:00 99% 21 km
Mi, 28.10. 1:00 73% 70 km
Di, 27.10. 19:00 83% 70 km
Ortszeit Relative Feuchte Sichtweite
Do, 29.10. 18:00 83% 29 km
Do, 29.10. 17:50 83% -
Do, 29.10. 17:40 82% -
Do, 29.10. 17:30 82% 30 km
Do, 29.10. 17:20 82% -
Do, 29.10. 17:10 82% -
Do, 29.10. 17:00 82% 30 km
Do, 29.10. 16:30 79% 45 km
Do, 29.10. 16:00 75% 45 km
Do, 29.10. 15:30 75% 35 km
Do, 29.10. 15:00 75% 60 km
Ortszeit Niederschlagsmenge Niederschlagsart
Do, 29.10. 13:00 1 l/m2 in 6 Std. Regen
Do, 29.10. 7:00 4 l/m2 in 12 Std. Regen
Do, 29.10. 1:00 0.1 l/m2 in 6 Std. Regen
Mi, 28.10. 19:00 2 l/m2 in 12 Std. Regen
Mi, 28.10. 13:00 1 l/m2 in 6 Std. Regen
Mi, 28.10. 7:00 0.8 l/m2 in 12 Std. Regen
Mi, 28.10. 1:00 0.0 l/m2 in 6 Std. -
Di, 27.10. 19:00 0.2 l/m2 in 12 Std. Regen
Ortszeit Niederschlagsmenge Niederschlagsart
Do, 29.10. 18:00 0.1 l/m2 in 1 Std. Regen
Do, 29.10. 17:50 keine Meldung -
Do, 29.10. 17:40 keine Meldung -
Do, 29.10. 17:30 0.1 l/m2 in 1 Std. -
Do, 29.10. 17:20 keine Meldung -
Do, 29.10. 17:10 keine Meldung -
Do, 29.10. 17:00 0.1 l/m2 in 1 Std. Regen
Do, 29.10. 16:30 0.1 l/m2 in 1 Std. -
Do, 29.10. 16:00 0.1 l/m2 in 1 Std. Regen
Do, 29.10. 15:30 0.1 l/m2 in 1 Std. -
Do, 29.10. 15:00 0.1 l/m2 in 1 Std. Sprühregen
Ortszeit Stärke Spitze Richtung
km/h Bft. km/h Grad Sektor
Do, 29.10. 13:00 13 3 39 260° W
Do, 29.10. 7:00 20 4 56 270° W
Do, 29.10. 1:00 7 2 11 180° S
Mi, 28.10. 19:00 6 1 39 70° O
Mi, 28.10. 13:00 18 3 32 240° SW
Mi, 28.10. 7:00 2 1 20 100° O
Mi, 28.10. 1:00 6 1 19 140° SO
Di, 27.10. 19:00 4 1 29 110° O
Ortszeit Stärke Spitze Richtung
km/h Bft. km/h Grad Sektor
Do, 29.10. 18:00 11 2 22 260° W
Do, 29.10. 17:50 11 2 - 260° W
Do, 29.10. 17:40 11 2 - 260° W
Do, 29.10. 17:30 11 2 22 260° W
Do, 29.10. 17:20 11 2 - 260° W
Do, 29.10. 17:10 11 2 - 260° W
Do, 29.10. 17:00 11 2 29 260° W
Do, 29.10. 16:30 14 3 29 270° W
Do, 29.10. 16:00 18 3 36 260° W
Do, 29.10. 15:30 17 3 31 260° W
Do, 29.10. 15:00 18 3 36 260° W
Ortszeit Untergrenze Bedeckung Gattung
total tief tief mittel hoch
Do, 29.10. 13:00 1290 m 4/8 4/8 - - -
Do, 29.10. 7:00 570 m 7/8 7/8 - - -
Do, 29.10. 1:00 1050 m 8/8 8/8 - - -
Mi, 28.10. 19:00 1470 m 8/8 2/8 - - -
Mi, 28.10. 13:00 930 m 7/8 7/8 - - -
Mi, 28.10. 7:00 870 m 7/8 7/8 - - -
Mi, 28.10. 1:00 960 m 8/8 8/8 - - -
Di, 27.10. 19:00 9000 m 3/8 0/8 - - -
Ortszeit Bedeckungsgrad in Achtel und Wolkenuntergrenze
Do, 29.10. 18:00 keine Wolken
Do, 29.10. 17:50 keine Wolken
Do, 29.10. 17:40 1(1500m)
Do, 29.10. 17:30 1(1500m)
Do, 29.10. 17:20 1(1500m)
Do, 29.10. 17:10 1(1500m)
Do, 29.10. 17:00 1(1290m) 5(1500m)
Do, 29.10. 16:30 4(1500m)
Do, 29.10. 16:00 4(1500m)
Do, 29.10. 15:30 1(870m) 5(1500m) 6(2100m)
Do, 29.10. 15:00 4(1140m) 7(2100m) 7(2400m)
Ortszeit Luftdruck NN (hPa) Tendenz (hPa in 3 Std.)
Do, 29.10. 13:00 1021 + 1,3
Do, 29.10. 7:00 1017 + 2,2
Do, 29.10. 1:00 1015 - 0,2
Mi, 28.10. 19:00 1016 + 0,5
Mi, 28.10. 13:00 1014 + 0,7
Mi, 28.10. 7:00 1011 + 0,6
Mi, 28.10. 1:00 1011 - 0,6
Di, 27.10. 19:00 1013 + 0,5
Ortszeit Luftdruck NN (hPa) Tendenz (hPa in 3 Std.)
Do, 29.10. 18:00 1022 + 1,3
Do, 29.10. 17:50 1022 keine Meldung
Do, 29.10. 17:40 1022 keine Meldung
Do, 29.10. 17:30 1022 + 1,0
Do, 29.10. 17:20 1022 keine Meldung
Do, 29.10. 17:10 1022 keine Meldung
Do, 29.10. 17:00 1022 + 0,9
Do, 29.10. 16:30 1022 + 0,6
Do, 29.10. 16:00 1021 + 0,4
Do, 29.10. 15:30 1021 + 0,1
Do, 29.10. 15:00 1021 - 0,1
Ortszeit Schneehöhe (cm)
Do, 29.10. 13:00 0
Do, 29.10. 7:00 0
Do, 29.10. 1:00 0
Mi, 28.10. 19:00 0
Mi, 28.10. 13:00 0
Mi, 28.10. 7:00 0
Mi, 28.10. 1:00 0
Di, 27.10. 19:00 0
Ortszeit Schneehöhe (cm)
Do, 29.10. 18:00 0
Do, 29.10. 17:50 0
Do, 29.10. 17:40 0
Do, 29.10. 17:30 0
Do, 29.10. 17:20 0
Do, 29.10. 17:10 0
Do, 29.10. 17:00 0
Do, 29.10. 16:30 0
Do, 29.10. 16:00 0
Do, 29.10. 15:30 0
Do, 29.10. 15:00 0
Link zu dieser Seite / Seite empfehlen

Das Wetter in ...